createdAt,value
2023-01-11T00:01:25.671Z,3.45
2023-01-11T00:04:12.661Z,3.65
2023-01-11T00:07:03.896Z,3.47
2023-01-11T00:09:50.791Z,3.17
2023-01-11T00:12:37.805Z,3.20
2023-01-11T00:15:27.001Z,3.55
2023-01-11T00:18:16.167Z,3.60
2023-01-11T00:21:05.656Z,3.45
2023-01-11T00:23:54.862Z,3.50
2023-01-11T00:26:41.644Z,3.20
2023-01-11T00:29:28.459Z,3.30
2023-01-11T00:32:17.808Z,3.25
2023-01-11T00:35:05.111Z,3.10
2023-01-11T00:37:55.229Z,3.60
2023-01-11T00:40:42.044Z,3.00
2023-01-11T00:43:47.557Z,2.88
2023-01-11T00:46:52.820Z,3.30
2023-01-11T00:49:40.045Z,3.00
2023-01-11T00:52:29.701Z,3.00
2023-01-11T00:55:16.548Z,3.80
2023-01-11T00:58:06.413Z,3.03
2023-01-11T01:00:56.938Z,2.83
2023-01-11T01:03:43.866Z,3.22
2023-01-11T01:06:30.910Z,3.20
2023-01-11T01:09:17.791Z,2.97
2023-01-11T01:12:07.050Z,3.20
2023-01-11T01:17:43.118Z,2.92
2023-01-11T01:23:16.941Z,3.20
2023-01-11T01:26:05.164Z,2.90
2023-01-11T01:28:52.087Z,2.95
2023-01-11T01:31:39.352Z,2.83
2023-01-11T01:34:26.493Z,2.85
2023-01-11T01:37:15.947Z,2.60
2023-01-11T01:40:03.186Z,2.78
2023-01-11T01:42:54.383Z,3.20
2023-01-11T01:45:48.759Z,2.95
2023-01-11T01:48:36.217Z,2.90
2023-01-11T01:51:27.482Z,2.67
2023-01-11T01:54:18.631Z,3.17
2023-01-11T01:57:08.984Z,2.90
2023-01-11T01:59:57.425Z,3.00
2023-01-11T02:02:47.753Z,2.90
2023-01-11T02:05:42.010Z,2.80
2023-01-11T02:08:37.128Z,3.20
2023-01-11T02:11:31.622Z,2.80
2023-01-11T02:14:20.106Z,3.08
2023-01-11T02:17:09.374Z,3.20
2023-01-11T02:23:10.535Z,2.72
2023-01-11T02:26:28.119Z,3.42
2023-01-11T02:29:44.673Z,2.83
2023-01-11T02:32:31.459Z,3.00
2023-01-11T02:35:35.848Z,2.72
2023-01-11T02:38:29.525Z,2.78
2023-01-11T02:41:54.627Z,2.70
2023-01-11T02:45:04.638Z,2.22
2023-01-11T02:48:01.277Z,2.75
2023-01-11T02:51:02.788Z,2.75
2023-01-11T02:54:04.542Z,2.80
2023-01-11T02:56:55.175Z,2.70
2023-01-11T02:59:42.268Z,2.65
2023-01-11T03:02:29.292Z,3.05
2023-01-11T03:05:16.165Z,2.80
2023-01-11T03:08:15.618Z,2.50
2023-01-11T03:11:10.045Z,2.50
2023-01-11T03:14:06.394Z,2.60
2023-01-11T03:17:19.276Z,2.70
2023-01-11T03:20:29.071Z,2.72
2023-01-11T03:23:21.532Z,2.88
2023-01-11T03:26:16.016Z,2.63
2023-01-11T03:29:26.869Z,2.80
2023-01-11T03:32:22.291Z,2.60
2023-01-11T03:35:20.287Z,2.60
2023-01-11T03:38:39.280Z,2.72
2023-01-11T03:41:28.875Z,2.33
2023-01-11T03:44:19.040Z,2.67
2023-01-11T03:47:08.244Z,2.72
2023-01-11T03:49:59.809Z,2.33
2023-01-11T03:52:47.051Z,2.35
2023-01-11T03:55:40.474Z,2.63
2023-01-11T03:58:27.861Z,2.30
2023-01-11T04:01:14.996Z,2.50
2023-01-11T04:04:01.894Z,2.40
2023-01-11T04:06:51.559Z,2.63
2023-01-11T04:09:38.525Z,2.60
2023-01-11T04:12:27.286Z,2.75
2023-01-11T04:15:15.211Z,2.33
2023-01-11T04:18:05.384Z,2.47
2023-01-11T04:20:52.185Z,2.50
2023-01-11T04:23:38.947Z,2.42
2023-01-11T04:26:25.740Z,2.45
2023-01-11T04:29:12.691Z,2.40
2023-01-11T04:31:59.471Z,2.70
2023-01-11T04:34:46.382Z,2.50
2023-01-11T04:37:33.144Z,2.58
2023-01-11T04:40:20.355Z,2.50
2023-01-11T04:43:07.145Z,2.83
2023-01-11T04:45:58.778Z,2.70
2023-01-11T04:48:45.571Z,2.72
2023-01-11T04:51:32.379Z,2.83
2023-01-11T04:54:19.159Z,2.80
2023-01-11T04:57:06.280Z,2.67
2023-01-11T04:59:53.071Z,2.60
2023-01-11T05:02:40.488Z,3.15
2023-01-11T05:05:27.240Z,2.58
2023-01-11T05:08:14.260Z,2.90
2023-01-11T05:11:03.591Z,2.83
2023-01-11T05:13:53.387Z,2.75
2023-01-11T05:16:40.307Z,2.80
2023-01-11T05:19:27.098Z,2.90
2023-01-11T05:22:13.911Z,2.90
2023-01-11T05:25:00.773Z,2.83
2023-01-11T05:27:47.543Z,2.67
2023-01-11T05:30:34.359Z,2.90
2023-01-11T05:33:21.177Z,2.88
2023-01-11T05:36:12.632Z,2.85
2023-01-11T05:39:02.358Z,2.75
2023-01-11T05:41:49.235Z,3.30
2023-01-11T05:44:58.228Z,3.30
2023-01-11T05:47:45.132Z,3.30
2023-01-11T05:50:31.998Z,3.78
2023-01-11T05:53:18.959Z,3.65
2023-01-11T05:56:05.933Z,2.80
2023-01-11T05:58:55.485Z,3.00
2023-01-11T06:01:42.286Z,3.35
2023-01-11T06:04:29.173Z,3.22
2023-01-11T06:07:15.983Z,3.17
2023-01-11T06:10:02.844Z,3.20
2023-01-11T06:13:26.702Z,3.17
2023-01-11T06:16:20.482Z,3.30
2023-01-11T06:23:05.933Z,4.32
2023-01-11T06:25:52.755Z,4.10
2023-01-11T06:28:39.879Z,3.83
2023-01-11T06:31:26.645Z,4.10
2023-01-11T06:34:13.417Z,3.97
2023-01-11T06:37:00.199Z,4.30
2023-01-11T06:39:46.990Z,4.05
2023-01-11T06:42:33.742Z,4.13
2023-01-11T06:45:20.789Z,4.35
2023-01-11T06:48:09.417Z,4.10
2023-01-11T06:50:59.472Z,3.97
2023-01-11T06:53:52.961Z,4.03
2023-01-11T06:56:42.349Z,3.80
2023-01-11T06:59:32.266Z,4.38
2023-01-11T07:02:19.101Z,4.25
2023-01-11T07:05:05.957Z,3.92
2023-01-11T07:07:52.808Z,4.22
2023-01-11T07:10:39.578Z,4.20
2023-01-11T07:13:26.363Z,4.30
2023-01-11T07:16:13.161Z,4.05
2023-01-11T07:19:00.003Z,4.43
2023-01-11T07:21:46.863Z,4.78
2023-01-11T07:24:33.804Z,4.22
2023-01-11T07:27:20.774Z,4.40
2023-01-11T07:30:09.872Z,4.35
2023-01-11T07:35:48.969Z,4.15
2023-01-11T07:38:35.849Z,4.82
2023-01-11T07:41:41.454Z,4.15
2023-01-11T07:44:28.212Z,4.20
2023-01-11T07:47:14.972Z,4.53
2023-01-11T07:50:01.792Z,3.88
2023-01-11T07:52:49.189Z,4.50
2023-01-11T07:55:36.142Z,4.35
2023-01-11T07:58:23.162Z,4.20
2023-01-11T08:01:09.955Z,4.25
2023-01-11T08:03:56.928Z,3.92
2023-01-11T08:06:43.664Z,4.72
2023-01-11T08:09:30.437Z,4.72
2023-01-11T08:12:35.840Z,4.20
2023-01-11T08:15:23.687Z,4.90
2023-01-11T08:18:11.790Z,4.30
2023-01-11T08:20:58.639Z,4.22
2023-01-11T08:23:45.397Z,4.30
2023-01-11T08:26:32.156Z,4.88
2023-01-11T08:29:19.026Z,4.50
2023-01-11T08:32:06.052Z,4.70
2023-01-11T08:34:52.785Z,4.45
2023-01-11T08:37:39.525Z,4.60
2023-01-11T08:40:26.347Z,4.40
2023-01-11T08:43:13.095Z,4.72
2023-01-11T08:45:59.952Z,5.28
2023-01-11T08:48:46.939Z,4.50
2023-01-11T08:51:33.805Z,4.65
2023-01-11T08:54:20.665Z,4.55
2023-01-11T08:57:07.710Z,4.60
2023-01-11T08:59:54.555Z,4.50
2023-01-11T09:02:41.488Z,4.32
2023-01-11T09:05:28.276Z,3.97
2023-01-11T09:08:15.032Z,3.88
2023-01-11T09:11:01.872Z,4.00
2023-01-11T09:13:48.786Z,4.43
2023-01-11T09:16:35.612Z,4.07
2023-01-11T09:19:22.430Z,3.78
2023-01-11T09:22:09.232Z,4.03
2023-01-11T09:24:58.884Z,3.80
2023-01-11T09:27:46.282Z,4.03
2023-01-11T09:30:33.086Z,4.05
2023-01-11T09:33:22.201Z,4.47
2023-01-11T09:36:09.015Z,4.32
2023-01-11T09:38:57.834Z,4.20
2023-01-11T09:42:11.269Z,4.32
2023-01-11T09:45:14.237Z,4.60
2023-01-11T09:48:11.706Z,4.43
2023-01-11T09:50:59.932Z,4.07
2023-01-11T09:53:50.234Z,4.53
2023-01-11T09:56:45.735Z,4.78
2023-01-11T09:59:42.482Z,4.55
2023-01-11T10:02:41.012Z,4.50
2023-01-11T10:05:45.394Z,4.43
2023-01-11T10:18:27.727Z,4.75
2023-01-11T10:22:32.358Z,4.20
2023-01-11T10:25:40.366Z,4.68
2023-01-11T10:28:43.050Z,4.57
2023-01-11T10:31:44.838Z,4.90
2023-01-11T10:34:58.028Z,4.53
2023-01-11T10:38:04.958Z,4.65
2023-01-11T10:41:12.288Z,4.70
2023-01-11T10:44:10.469Z,4.40
2023-01-11T10:46:57.848Z,4.63
2023-01-11T10:50:06.229Z,4.43
2023-01-11T10:53:15.037Z,4.70
2023-01-11T10:56:24.540Z,4.73
2023-01-11T10:59:34.848Z,4.88
2023-01-11T11:02:43.045Z,5.00
2023-01-11T11:05:51.954Z,4.18
2023-01-11T11:08:48.400Z,4.65
2023-01-11T11:11:41.640Z,4.90
2023-01-11T11:14:39.821Z,4.78
2023-01-11T11:17:35.320Z,4.80
2023-01-11T11:20:29.380Z,4.90
2023-01-11T11:23:25.076Z,4.47
2023-01-11T11:26:15.056Z,4.57
2023-01-11T11:29:33.599Z,4.47
2023-01-11T11:33:00.260Z,4.38
2023-01-11T11:35:56.717Z,4.75
2023-01-11T11:39:11.098Z,4.72
2023-01-11T11:42:10.534Z,4.80
2023-01-11T11:45:09.572Z,4.57
2023-01-11T11:48:05.786Z,4.55
2023-01-11T11:50:54.473Z,4.13
2023-01-11T11:53:45.996Z,4.28
2023-01-11T11:56:34.344Z,4.50
2023-01-11T12:02:52.704Z,4.35
2023-01-11T12:05:51.835Z,3.88
2023-01-11T12:08:42.385Z,4.20
2023-01-11T12:11:32.789Z,4.50
2023-01-11T12:15:24.309Z,4.00
2023-01-11T12:18:25.202Z,4.38
2023-01-11T12:21:23.892Z,4.25
2023-01-11T12:24:19.306Z,4.32
2023-01-11T12:27:12.487Z,4.32
2023-01-11T12:30:08.558Z,4.20
2023-01-11T12:33:14.009Z,4.03
2023-01-11T12:36:05.980Z,4.18
2023-01-11T12:39:24.968Z,4.45
2023-01-11T12:42:45.887Z,4.30
2023-01-11T12:46:00.707Z,4.45
2023-01-11T12:49:46.551Z,4.50
2023-01-11T12:53:07.594Z,4.60
2023-01-11T12:56:12.775Z,4.07
2023-01-11T12:59:16.059Z,4.40
2023-01-11T13:02:21.628Z,4.60
2023-01-11T13:05:49.889Z,4.38
2023-01-11T13:09:04.683Z,4.40
2023-01-11T13:12:16.195Z,4.70
2023-01-11T13:15:05.884Z,5.00
2023-01-11T13:18:00.842Z,4.38
2023-01-11T13:21:01.227Z,4.35
2023-01-11T13:23:57.910Z,4.50
2023-01-11T13:26:47.668Z,4.00
2023-01-11T13:29:44.621Z,4.53
2023-01-11T13:32:34.086Z,4.45
2023-01-11T13:35:35.839Z,4.05
2023-01-11T13:38:34.894Z,4.72
2023-01-11T13:41:25.029Z,4.20
2023-01-11T13:44:25.805Z,4.45
2023-01-11T13:47:36.013Z,4.05
2023-01-11T13:50:37.639Z,4.43
2023-01-11T13:53:48.913Z,4.00
2023-01-11T13:56:44.053Z,4.50
2023-01-11T13:59:42.821Z,4.20
2023-01-11T14:02:42.362Z,4.30
2023-01-11T14:05:35.495Z,4.32
2023-01-11T14:08:47.885Z,4.25
2023-01-11T14:12:19.353Z,4.65
2023-01-11T14:15:18.425Z,4.07
2023-01-11T14:18:11.207Z,4.43
2023-01-11T14:21:17.043Z,4.13
2023-01-11T14:24:07.969Z,4.18
2023-01-11T14:27:28.265Z,4.40
2023-01-11T14:31:19.143Z,4.05
2023-01-11T14:35:01.026Z,4.60
2023-01-11T14:38:08.977Z,4.05
2023-01-11T14:41:26.914Z,4.40
2023-01-11T14:44:28.057Z,4.40
2023-01-11T14:47:35.758Z,4.40
2023-01-11T14:50:44.946Z,4.53
2023-01-11T14:57:14.622Z,4.50
2023-01-11T15:00:27.868Z,4.90
2023-01-11T15:10:24.799Z,4.93
2023-01-11T15:13:24.075Z,5.15
2023-01-11T15:19:29.836Z,4.93
2023-01-11T15:22:46.297Z,4.80
2023-01-11T15:25:45.501Z,5.20
2023-01-11T15:31:47.824Z,5.10
2023-01-11T15:34:54.072Z,4.97
2023-01-11T15:37:48.752Z,5.18
2023-01-11T15:40:41.388Z,4.93
2023-01-11T15:43:40.065Z,5.10
2023-01-11T15:46:55.738Z,5.50
2023-01-11T15:50:20.311Z,5.10
2023-01-11T15:53:25.315Z,5.00
2023-01-11T15:56:43.551Z,4.93
2023-01-11T15:59:46.769Z,5.40
2023-01-11T16:02:49.944Z,5.65
2023-01-11T16:05:44.144Z,4.72
2023-01-11T16:08:44.556Z,5.15
2023-01-11T16:11:44.562Z,5.45
2023-01-11T16:15:11.699Z,5.50
2023-01-11T16:18:12.268Z,5.50
2023-01-11T16:21:09.535Z,5.72
2023-01-11T16:23:56.683Z,5.60
2023-01-11T16:26:43.838Z,5.90
2023-01-11T16:29:35.356Z,5.88
2023-01-11T16:32:37.616Z,5.85
2023-01-11T16:35:25.286Z,5.43
2023-01-11T16:38:21.397Z,5.43
2023-01-11T16:41:13.035Z,5.45
2023-01-11T16:44:03.148Z,5.80
2023-01-11T16:47:11.280Z,5.75
2023-01-11T16:50:10.554Z,5.57
2023-01-11T16:55:56.242Z,5.50
2023-01-11T16:58:43.428Z,5.65
2023-01-11T17:01:54.426Z,5.60
2023-01-11T17:04:50.973Z,5.43
2023-01-11T17:07:37.793Z,5.55
2023-01-11T17:10:35.104Z,6.07
2023-01-11T17:13:47.248Z,5.47
2023-01-11T17:16:41.752Z,5.32
2023-01-11T17:19:30.910Z,5.38
2023-01-11T17:22:23.675Z,5.55
2023-01-11T17:25:23.503Z,5.57
2023-01-11T17:28:16.539Z,5.53
2023-01-11T17:31:05.708Z,5.25
2023-01-11T17:36:53.625Z,5.03
2023-01-11T17:39:50.071Z,5.40
2023-01-11T17:42:55.615Z,5.65
2023-01-11T17:45:42.773Z,5.57
2023-01-11T17:48:40.055Z,5.63
2023-01-11T17:51:33.984Z,5.68
2023-01-11T17:54:25.255Z,5.43
2023-01-11T17:57:15.198Z,5.00
2023-01-11T18:00:18.676Z,5.20
2023-01-11T18:03:15.682Z,4.90
2023-01-11T18:06:23.947Z,5.70
2023-01-11T18:10:03.997Z,4.90
2023-01-11T18:12:56.086Z,5.10
2023-01-11T18:15:46.882Z,5.22
2023-01-11T18:18:53.010Z,5.53
2023-01-11T18:21:52.346Z,5.40
2023-01-11T18:24:43.360Z,5.07
2023-01-11T18:27:35.746Z,5.53
2023-01-11T18:30:31.779Z,5.10
2023-01-11T18:33:24.333Z,5.13
2023-01-11T18:36:21.581Z,5.28
2023-01-11T18:39:30.310Z,5.38
2023-01-11T18:42:36.709Z,4.88
2023-01-11T18:46:19.115Z,4.82
2023-01-11T18:49:40.933Z,5.25
2023-01-11T18:52:49.431Z,4.82
2023-01-11T18:55:42.296Z,4.63
2023-01-11T19:08:45.804Z,4.70
2023-01-11T19:26:17.090Z,4.18
2023-01-11T19:37:26.153Z,4.53
2023-01-11T19:45:14.276Z,4.15
2023-01-11T19:52:28.982Z,4.30
2023-01-11T19:59:10.340Z,3.97
2023-01-11T20:02:02.768Z,3.90
2023-01-11T20:05:23.335Z,4.35
2023-01-11T20:08:17.871Z,4.25
2023-01-11T20:12:12.025Z,4.35
2023-01-11T20:15:46.623Z,4.00
2023-01-11T20:19:48.624Z,4.10
2023-01-11T20:23:08.909Z,3.70
2023-01-11T20:30:00.497Z,3.90
2023-01-11T20:37:24.458Z,4.25
2023-01-11T20:48:04.953Z,4.25
2023-01-11T20:58:16.468Z,3.72
2023-01-11T21:05:44.418Z,3.78
2023-01-11T21:20:13.468Z,3.28
2023-01-11T21:23:00.238Z,3.80
2023-01-11T21:25:47.167Z,3.80
2023-01-11T21:28:37.663Z,3.60
2023-01-11T21:31:39.043Z,3.38
2023-01-11T21:34:34.560Z,3.50
2023-01-11T21:37:25.945Z,3.03
2023-01-11T21:43:33.620Z,3.30
2023-01-11T21:46:23.576Z,3.35
2023-01-11T21:49:31.508Z,3.30
2023-01-11T21:52:31.716Z,2.80
2023-01-11T21:55:25.665Z,3.25
2023-01-11T21:58:22.816Z,2.88
2023-01-11T22:01:13.013Z,3.15
2023-01-11T22:04:08.786Z,3.03
2023-01-11T22:06:56.310Z,3.25
2023-01-11T22:10:03.481Z,3.38
2023-01-11T22:12:51.621Z,3.20
2023-01-11T22:15:39.274Z,3.40
2023-01-11T22:18:54.584Z,3.20
2023-01-11T22:21:44.681Z,3.03
2023-01-11T22:24:31.535Z,2.95
2023-01-11T22:27:21.284Z,2.70
2023-01-11T22:30:21.536Z,2.80
2023-01-11T22:34:06.992Z,3.00
2023-01-11T22:36:57.057Z,2.80
2023-01-11T22:39:43.871Z,2.85
2023-01-11T22:42:30.804Z,2.88
2023-01-11T22:45:18.797Z,2.85
2023-01-11T22:48:10.941Z,2.80
2023-01-11T22:50:58.660Z,2.88
2023-01-11T22:53:48.092Z,2.70
2023-01-11T22:56:34.981Z,2.90
2023-01-11T22:59:21.851Z,2.72
2023-01-11T23:02:16.007Z,2.75
2023-01-11T23:05:02.797Z,2.45
2023-01-11T23:07:49.616Z,2.63
2023-01-11T23:10:36.379Z,2.70
2023-01-11T23:13:41.860Z,2.53
2023-01-11T23:16:28.736Z,2.38
2023-01-11T23:19:23.566Z,2.25
2023-01-11T23:22:12.677Z,2.92
2023-01-11T23:25:03.588Z,2.70
2023-01-11T23:27:50.388Z,2.60
2023-01-11T23:30:38.731Z,2.50
2023-01-11T23:33:26.332Z,2.70
2023-01-11T23:36:13.773Z,2.30
2023-01-11T23:39:00.904Z,2.30
2023-01-11T23:42:09.511Z,2.50
2023-01-11T23:44:57.531Z,2.50
2023-01-11T23:47:44.321Z,2.38
2023-01-11T23:50:31.881Z,2.40
2023-01-11T23:53:13.886Z,2.40
2023-01-11T23:58:47.605Z,2.33
